createdAt,value
2019-01-29T00:00:24.028Z,0.00
2019-01-29T00:01:24.014Z,0.00
2019-01-29T00:02:24.003Z,0.00
2019-01-29T00:03:23.995Z,0.00
2019-01-29T00:04:23.985Z,0.00
2019-01-29T00:05:23.965Z,0.00
2019-01-29T00:06:23.953Z,0.00
2019-01-29T00:07:23.948Z,0.00
2019-01-29T00:08:23.933Z,0.00
2019-01-29T00:09:23.919Z,0.00
2019-01-29T00:10:23.909Z,0.00
2019-01-29T00:11:23.892Z,0.00
2019-01-29T00:12:23.884Z,0.00
2019-01-29T00:13:23.865Z,0.00
2019-01-29T00:14:23.854Z,0.00
2019-01-29T00:15:23.845Z,0.00
2019-01-29T00:16:23.833Z,0.00
2019-01-29T00:17:23.822Z,0.00
2019-01-29T00:18:23.810Z,0.00
2019-01-29T00:19:23.795Z,0.00
2019-01-29T00:20:23.780Z,0.00
2019-01-29T00:21:23.772Z,0.00
2019-01-29T00:22:23.761Z,0.00
2019-01-29T00:23:23.743Z,0.00
2019-01-29T00:24:23.732Z,0.00
2019-01-29T00:25:23.718Z,0.00
2019-01-29T00:26:23.707Z,0.00
2019-01-29T00:27:23.698Z,0.00
2019-01-29T00:28:23.685Z,0.00
2019-01-29T00:29:23.673Z,0.00
2019-01-29T00:30:24.610Z,0.00
2019-01-29T00:31:23.643Z,0.00
2019-01-29T00:32:23.631Z,0.00
2019-01-29T00:33:23.620Z,0.00
2019-01-29T00:34:23.607Z,0.00
2019-01-29T00:35:23.597Z,0.00
2019-01-29T00:36:23.586Z,0.00
2019-01-29T00:37:23.569Z,0.00
2019-01-29T00:38:23.557Z,0.00
2019-01-29T00:39:23.548Z,0.00
2019-01-29T00:40:23.536Z,0.00
2019-01-29T00:41:23.526Z,0.00
2019-01-29T00:42:23.512Z,0.00
2019-01-29T00:43:23.495Z,0.00
2019-01-29T00:44:23.482Z,0.00
2019-01-29T00:45:23.470Z,0.00
2019-01-29T00:46:23.458Z,0.00
2019-01-29T00:47:23.451Z,0.00
2019-01-29T00:48:23.439Z,0.00
2019-01-29T00:49:23.425Z,0.00
2019-01-29T00:50:23.412Z,0.00
2019-01-29T00:51:23.395Z,0.00
2019-01-29T00:52:23.384Z,0.00
2019-01-29T00:53:23.375Z,0.00
2019-01-29T00:54:23.363Z,0.00
2019-01-29T00:55:23.345Z,0.00
2019-01-29T00:56:23.333Z,0.00
2019-01-29T00:57:23.322Z,0.00
2019-01-29T00:58:23.366Z,0.00
2019-01-29T00:59:23.302Z,0.00
2019-01-29T01:00:23.289Z,0.00
2019-01-29T01:01:23.301Z,0.00
2019-01-29T01:02:23.265Z,0.00
2019-01-29T01:03:23.246Z,0.00
2019-01-29T01:04:23.234Z,0.00
2019-01-29T01:05:23.222Z,0.00
2019-01-29T01:06:23.211Z,0.00
2019-01-29T01:07:23.202Z,0.00
2019-01-29T01:08:23.189Z,0.00
2019-01-29T01:09:23.172Z,0.00
2019-01-29T01:10:23.162Z,0.00
2019-01-29T01:11:23.151Z,0.00
2019-01-29T01:12:23.139Z,0.00
2019-01-29T01:13:23.128Z,0.00
2019-01-29T01:14:23.116Z,0.00
2019-01-29T01:15:23.097Z,0.00
2019-01-29T01:16:23.085Z,0.00
2019-01-29T01:17:23.073Z,0.00
2019-01-29T01:18:23.061Z,0.00
2019-01-29T01:19:23.054Z,0.00
2019-01-29T01:20:23.040Z,0.00
2019-01-29T01:21:23.027Z,0.00
2019-01-29T01:22:23.015Z,0.00
2019-01-29T01:23:22.998Z,0.00
2019-01-29T01:24:22.990Z,0.00
2019-01-29T01:25:22.978Z,0.00
2019-01-29T01:26:22.967Z,0.00
2019-01-29T01:27:22.948Z,0.00
2019-01-29T01:28:22.937Z,0.00
2019-01-29T01:29:22.923Z,0.00
2019-01-29T01:30:22.914Z,0.00
2019-01-29T01:31:22.903Z,0.00
2019-01-29T01:32:22.892Z,0.00
2019-01-29T01:33:22.880Z,0.00
2019-01-29T01:34:22.866Z,0.00
2019-01-29T01:35:22.849Z,0.00
2019-01-29T01:36:22.836Z,0.00
2019-01-29T01:37:22.824Z,0.00
2019-01-29T01:38:22.811Z,0.00
2019-01-29T01:39:22.803Z,0.00
2019-01-29T01:40:22.793Z,0.00
2019-01-29T01:41:22.833Z,0.00
2019-01-29T01:42:22.763Z,0.00
2019-01-29T01:43:22.753Z,0.00
2019-01-29T01:44:22.741Z,0.00
2019-01-29T01:45:22.728Z,0.00
2019-01-29T01:46:22.715Z,0.00
2019-01-29T01:47:22.697Z,0.00
2019-01-29T01:48:22.685Z,0.00
2019-01-29T01:49:22.672Z,0.00
2019-01-29T01:50:22.660Z,0.00
2019-01-29T01:51:22.651Z,0.00
2019-01-29T01:52:22.639Z,0.00
2019-01-29T01:53:22.681Z,0.00
2019-01-29T01:54:22.616Z,0.00
2019-01-29T01:55:22.597Z,0.00
2019-01-29T01:56:22.584Z,0.00
2019-01-29T01:57:22.579Z,0.00
2019-01-29T01:58:22.565Z,0.00
2019-01-29T01:59:22.547Z,0.00
2019-01-29T02:00:22.533Z,0.00
2019-01-29T02:01:22.522Z,0.00
2019-01-29T02:02:22.509Z,0.00
2019-01-29T02:03:22.499Z,0.00
2019-01-29T02:04:22.489Z,0.00
2019-01-29T02:05:22.480Z,0.00
2019-01-29T02:06:22.464Z,0.00
2019-01-29T02:07:22.446Z,0.00
2019-01-29T02:08:22.434Z,0.00
2019-01-29T02:09:22.423Z,0.00
2019-01-29T02:10:22.414Z,0.00
2019-01-29T02:11:22.401Z,0.00
2019-01-29T02:12:22.389Z,0.00
2019-01-29T02:13:22.373Z,0.00
2019-01-29T02:14:22.359Z,0.00
2019-01-29T02:15:22.351Z,0.00
2019-01-29T02:16:22.338Z,0.00
2019-01-29T02:17:22.325Z,0.00
2019-01-29T02:18:22.314Z,0.00
2019-01-29T02:19:22.295Z,0.00
2019-01-29T02:20:22.282Z,0.00
2019-01-29T02:21:22.270Z,0.00
2019-01-29T02:22:22.258Z,0.00
2019-01-29T02:23:22.248Z,0.00
2019-01-29T02:24:22.236Z,0.00
2019-01-29T02:25:22.225Z,0.00
2019-01-29T02:26:22.221Z,0.00
2019-01-29T02:27:22.195Z,0.00
2019-01-29T02:28:22.181Z,0.00
2019-01-29T02:29:22.175Z,0.00
2019-01-29T02:30:22.164Z,0.00
2019-01-29T02:31:22.149Z,0.00
2019-01-29T02:32:22.133Z,0.00
2019-01-29T02:33:24.977Z,0.00
2019-01-29T02:34:22.107Z,0.00
2019-01-29T02:35:22.097Z,0.00
2019-01-29T02:36:22.085Z,0.00
2019-01-29T02:37:22.074Z,0.00
2019-01-29T02:38:22.062Z,0.00
2019-01-29T02:39:22.044Z,0.00
2019-01-29T02:40:22.031Z,0.00
2019-01-29T02:41:22.020Z,0.00
2019-01-29T02:42:22.009Z,0.00
2019-01-29T02:43:21.999Z,0.00
2019-01-29T02:44:21.987Z,0.00
2019-01-29T02:45:21.969Z,0.00
2019-01-29T02:46:21.956Z,0.00
2019-01-29T02:47:21.962Z,0.00
2019-01-29T02:48:21.936Z,0.00
2019-01-29T02:49:21.925Z,0.00
2019-01-29T02:50:21.914Z,0.00
2019-01-29T02:51:21.893Z,0.00
2019-01-29T02:52:21.882Z,0.00
2019-01-29T02:53:21.868Z,0.00
2019-01-29T02:54:21.857Z,0.00
2019-01-29T02:55:21.851Z,0.00
2019-01-29T02:56:21.836Z,0.00
2019-01-29T02:57:21.823Z,0.00
2019-01-29T02:58:21.823Z,0.00
2019-01-29T02:59:21.794Z,0.00
2019-01-29T03:00:21.782Z,0.00
2019-01-29T03:01:21.774Z,0.00
2019-01-29T03:02:21.762Z,0.00
2019-01-29T03:03:21.743Z,0.00
2019-01-29T03:04:21.730Z,0.00
2019-01-29T03:05:21.718Z,0.00
2019-01-29T03:06:21.706Z,0.00
2019-01-29T03:07:21.698Z,0.00
2019-01-29T03:08:21.687Z,0.00
2019-01-29T03:09:21.673Z,0.00
2019-01-29T03:10:21.662Z,0.00
2019-01-29T03:11:21.643Z,0.00
2019-01-29T03:12:21.632Z,0.00
2019-01-29T03:13:21.619Z,0.00
2019-01-29T03:14:21.606Z,0.00
2019-01-29T03:15:21.598Z,0.00
2019-01-29T03:16:21.590Z,0.00
2019-01-29T03:17:21.569Z,0.00
2019-01-29T03:18:21.559Z,0.00
2019-01-29T03:19:21.548Z,0.00
2019-01-29T03:20:21.536Z,0.00
2019-01-29T03:21:21.524Z,0.00
2019-01-29T03:22:21.512Z,0.00
2019-01-29T03:23:27.358Z,0.00
2019-01-29T03:24:21.481Z,0.00
2019-01-29T03:25:21.470Z,0.00
2019-01-29T03:26:21.458Z,0.00
2019-01-29T03:27:21.449Z,0.00
2019-01-29T03:28:21.437Z,0.00
2019-01-29T03:29:21.424Z,0.00
2019-01-29T03:30:21.421Z,0.00
2019-01-29T03:31:21.395Z,0.00
2019-01-29T03:32:21.391Z,0.00
2019-01-29T03:33:21.393Z,0.00
2019-01-29T03:34:21.364Z,0.00
2019-01-29T03:35:21.346Z,0.00
2019-01-29T03:36:21.334Z,0.00
2019-01-29T03:37:21.319Z,0.00
2019-01-29T03:38:21.308Z,0.00
2019-01-29T03:39:21.303Z,0.00
2019-01-29T03:40:21.289Z,0.00
2019-01-29T03:41:21.276Z,0.00
2019-01-29T03:42:21.263Z,0.00
2019-01-29T03:43:21.246Z,0.00
2019-01-29T03:44:21.232Z,0.00
2019-01-29T03:45:21.220Z,0.00
2019-01-29T03:46:21.208Z,0.00
2019-01-29T03:47:21.200Z,0.00
2019-01-29T03:48:21.187Z,0.00
2019-01-29T03:49:21.170Z,0.00
2019-01-29T03:50:21.160Z,0.00
2019-01-29T03:51:21.149Z,0.00
2019-01-29T03:52:21.139Z,0.00
2019-01-29T03:53:21.127Z,0.00
2019-01-29T03:54:21.115Z,0.00
2019-01-29T03:55:21.098Z,0.00
2019-01-29T03:56:21.084Z,0.00
2019-01-29T03:57:21.072Z,0.00
2019-01-29T03:58:21.063Z,0.00
2019-01-29T03:59:21.051Z,0.00
2019-01-29T04:00:21.039Z,0.00
2019-01-29T04:01:21.026Z,0.00
2019-01-29T04:02:21.014Z,0.00
2019-01-29T04:03:20.998Z,0.00
2019-01-29T04:04:20.984Z,0.00
2019-01-29T04:05:20.976Z,0.00
2019-01-29T04:06:20.966Z,0.00
2019-01-29T04:07:20.948Z,0.00
2019-01-29T04:08:20.935Z,0.00
2019-01-29T04:09:20.934Z,0.00
2019-01-29T04:10:20.912Z,0.00
2019-01-29T04:11:20.915Z,0.00
2019-01-29T04:12:20.892Z,0.00
2019-01-29T04:13:20.879Z,0.00
2019-01-29T04:14:20.867Z,0.00
2019-01-29T04:15:20.848Z,0.00
2019-01-29T04:16:20.836Z,0.00
2019-01-29T04:17:20.824Z,0.00
2019-01-29T04:18:20.812Z,0.00
2019-01-29T04:19:20.802Z,0.00
2019-01-29T04:20:20.794Z,0.00
2019-01-29T04:21:20.775Z,0.00
2019-01-29T04:22:20.762Z,0.00
2019-01-29T04:23:20.754Z,0.00
2019-01-29T04:24:20.741Z,0.00
2019-01-29T04:25:20.730Z,0.00
2019-01-29T04:26:20.718Z,0.00
2019-01-29T04:27:20.699Z,0.00
2019-01-29T04:28:20.686Z,0.00
2019-01-29T04:29:20.674Z,0.00
2019-01-29T04:30:20.663Z,0.00
2019-01-29T04:31:20.654Z,0.00
2019-01-29T04:32:20.642Z,0.00
2019-01-29T04:33:20.630Z,0.00
2019-01-29T04:34:20.617Z,0.00
2019-01-29T04:35:20.601Z,0.00
2019-01-29T04:36:20.587Z,0.00
2019-01-29T04:37:20.578Z,0.00
2019-01-29T04:38:20.565Z,0.00
2019-01-29T04:39:20.552Z,0.00
2019-01-29T04:40:20.538Z,0.00
2019-01-29T04:41:20.528Z,0.00
2019-01-29T04:42:20.512Z,0.00
2019-01-29T04:43:20.503Z,0.00
2019-01-29T04:44:20.491Z,0.00
2019-01-29T04:45:20.478Z,0.00
2019-01-29T04:46:20.464Z,0.00
2019-01-29T04:47:20.445Z,0.00
2019-01-29T04:48:20.435Z,0.00
2019-01-29T04:49:20.421Z,0.00
2019-01-29T04:50:20.409Z,0.00
2019-01-29T04:51:20.401Z,0.00
2019-01-29T04:52:20.389Z,0.00
2019-01-29T04:53:20.373Z,0.00
2019-01-29T04:54:20.358Z,0.00
2019-01-29T04:55:20.371Z,0.00
2019-01-29T04:56:20.338Z,0.00
2019-01-29T04:57:20.326Z,0.00
2019-01-29T04:58:20.311Z,0.00
2019-01-29T04:59:20.330Z,0.00
2019-01-29T05:00:20.285Z,0.00
2019-01-29T05:01:20.269Z,0.00
2019-01-29T05:02:20.256Z,0.00
2019-01-29T05:03:20.255Z,0.00
2019-01-29T05:04:20.234Z,0.00
2019-01-29T05:05:20.226Z,0.00
2019-01-29T05:06:20.215Z,0.00
2019-01-29T05:07:20.192Z,0.00
2019-01-29T05:08:20.179Z,0.00
2019-01-29T05:09:20.175Z,0.00
2019-01-29T05:10:20.159Z,0.00
2019-01-29T05:11:20.141Z,0.00
2019-01-29T05:12:20.130Z,0.00
2019-01-29T05:13:20.116Z,0.00
2019-01-29T05:14:20.105Z,0.00
2019-01-29T05:15:20.096Z,0.00
2019-01-29T05:16:20.082Z,0.00
2019-01-29T05:17:20.077Z,0.00
2019-01-29T05:18:20.058Z,0.00
2019-01-29T05:19:20.042Z,0.00
2019-01-29T05:20:20.028Z,0.00
2019-01-29T05:21:20.016Z,0.00
2019-01-29T05:22:20.004Z,0.00
2019-01-29T05:23:19.995Z,0.00
2019-01-29T05:24:19.982Z,0.00
2019-01-29T05:25:19.965Z,0.00
2019-01-29T05:26:19.953Z,0.00
2019-01-29T05:27:19.944Z,0.00
2019-01-29T05:28:19.932Z,0.00
2019-01-29T05:29:19.918Z,0.00
2019-01-29T05:30:20.674Z,0.00
2019-01-29T05:31:19.888Z,0.00
2019-01-29T05:32:19.876Z,0.00
2019-01-29T05:33:19.864Z,0.00
2019-01-29T05:34:19.851Z,0.00
2019-01-29T05:35:19.842Z,0.00
2019-01-29T05:36:19.830Z,0.00
2019-01-29T05:37:19.819Z,0.00
2019-01-29T05:38:19.810Z,0.00
2019-01-29T05:39:19.788Z,0.00
2019-01-29T05:40:19.776Z,0.00
2019-01-29T05:41:19.768Z,0.00
2019-01-29T05:42:19.759Z,0.00
2019-01-29T05:43:19.742Z,0.00
2019-01-29T05:44:19.726Z,0.00
2019-01-29T05:45:19.714Z,0.00
2019-01-29T05:46:19.727Z,0.00
2019-01-29T05:47:19.691Z,0.00
2019-01-29T05:48:19.679Z,0.00
2019-01-29T05:49:19.667Z,0.00
2019-01-29T05:50:19.658Z,0.00
2019-01-29T05:51:19.638Z,0.00
2019-01-29T05:52:19.625Z,0.00
2019-01-29T05:53:19.613Z,0.00
2019-01-29T05:54:19.603Z,0.00
2019-01-29T05:55:19.592Z,0.00
2019-01-29T05:56:19.579Z,0.00
2019-01-29T05:57:19.562Z,0.00
2019-01-29T05:58:19.550Z,0.00
2019-01-29T05:59:19.541Z,0.00
2019-01-29T06:00:19.529Z,0.00
2019-01-29T06:01:19.519Z,0.00
2019-01-29T06:02:19.507Z,0.00
2019-01-29T06:03:19.489Z,0.00
2019-01-29T06:04:19.481Z,0.00
2019-01-29T06:05:19.545Z,0.00
2019-01-29T06:06:19.451Z,0.00
2019-01-29T06:07:19.446Z,0.00
2019-01-29T06:08:19.430Z,0.00
2019-01-29T06:09:19.416Z,0.00
2019-01-29T06:10:19.404Z,0.00
2019-01-29T06:11:19.391Z,0.00
2019-01-29T06:12:19.376Z,0.00
2019-01-29T06:13:19.416Z,0.00
2019-01-29T06:14:19.354Z,0.00
2019-01-29T06:15:19.336Z,0.00
2019-01-29T06:16:19.324Z,0.00
2019-01-29T06:17:27.216Z,0.00
2019-01-29T06:18:19.299Z,0.00
2019-01-29T06:19:19.291Z,0.00
2019-01-29T06:20:19.323Z,0.00
2019-01-29T06:21:19.268Z,0.00
2019-01-29T06:22:19.255Z,0.00
2019-01-29T06:23:19.242Z,0.00
2019-01-29T06:24:25.508Z,0.00
2019-01-29T06:25:19.232Z,0.00
2019-01-29T06:26:19.201Z,0.00
2019-01-29T06:27:19.196Z,0.00
2019-01-29T06:28:19.178Z,0.00
2019-01-29T06:29:19.161Z,0.00
2019-01-29T06:30:19.149Z,0.00
2019-01-29T06:31:19.141Z,0.00
2019-01-29T06:32:19.128Z,0.00
2019-01-29T06:33:19.116Z,0.00
2019-01-29T06:34:19.104Z,0.00
2019-01-29T06:35:19.086Z,0.00
2019-01-29T06:36:19.074Z,0.00
2019-01-29T06:37:19.064Z,0.00
2019-01-29T06:38:19.053Z,0.00
2019-01-29T06:39:19.041Z,0.00
2019-01-29T06:40:19.027Z,0.00
2019-01-29T06:41:19.016Z,0.00
2019-01-29T06:42:19.003Z,0.00
2019-01-29T06:43:18.985Z,0.00
2019-01-29T06:44:18.972Z,0.00
2019-01-29T06:45:18.964Z,0.00
2019-01-29T06:46:18.954Z,0.00
2019-01-29T06:47:18.934Z,0.00
2019-01-29T06:48:18.922Z,0.00
2019-01-29T06:49:18.911Z,0.00
2019-01-29T06:50:18.897Z,0.00
2019-01-29T06:51:18.889Z,0.00
2019-01-29T06:52:18.877Z,0.00
2019-01-29T06:53:18.859Z,0.00
2019-01-29T06:54:18.847Z,0.00
2019-01-29T06:55:18.841Z,0.00
2019-01-29T06:56:18.831Z,0.00
2019-01-29T06:57:18.814Z,0.00
2019-01-29T06:58:18.802Z,0.00
2019-01-29T06:59:18.786Z,0.00
2019-01-29T07:00:18.772Z,0.00
2019-01-29T07:01:18.771Z,0.00
2019-01-29T07:02:18.752Z,0.00
2019-01-29T07:03:18.733Z,0.00
2019-01-29T07:04:18.722Z,0.00
2019-01-29T07:05:18.709Z,0.00
2019-01-29T07:06:18.696Z,0.00
2019-01-29T07:07:18.688Z,0.00
2019-01-29T07:08:18.676Z,0.00
2019-01-29T07:09:18.663Z,0.00
2019-01-29T07:10:18.650Z,0.00
2019-01-29T07:11:18.634Z,0.00
2019-01-29T07:12:18.621Z,0.00
2019-01-29T07:13:18.609Z,0.00
2019-01-29T07:14:18.599Z,0.00
2019-01-29T07:15:18.587Z,5.63
2019-01-29T07:16:18.576Z,5.63
2019-01-29T07:17:18.561Z,5.63
2019-01-29T07:18:18.546Z,5.63
2019-01-29T07:19:18.538Z,5.63
2019-01-29T07:20:18.525Z,5.63
2019-01-29T07:21:18.513Z,5.63
2019-01-29T07:22:18.500Z,11.25
2019-01-29T07:23:18.482Z,11.25
2019-01-29T07:24:18.470Z,11.25
2019-01-29T07:25:18.461Z,11.25
2019-01-29T07:26:18.451Z,16.88
2019-01-29T07:27:18.437Z,16.88
2019-01-29T07:28:18.425Z,16.88
2019-01-29T07:29:18.413Z,22.50
2019-01-29T07:30:18.401Z,22.50
2019-01-29T07:31:18.382Z,28.13
2019-01-29T07:32:18.370Z,28.13
2019-01-29T07:33:18.363Z,33.75
2019-01-29T07:34:18.350Z,39.38
2019-01-29T07:35:18.333Z,39.38
2019-01-29T07:36:18.322Z,45.00
2019-01-29T07:37:21.984Z,45.00
2019-01-29T07:38:18.296Z,45.00
2019-01-29T07:39:18.289Z,50.63
2019-01-29T07:40:18.276Z,50.63
2019-01-29T07:41:18.263Z,50.63
2019-01-29T07:42:18.253Z,56.25
2019-01-29T07:43:18.233Z,61.88
2019-01-29T07:44:18.221Z,61.88
2019-01-29T07:45:18.209Z,61.88
2019-01-29T07:46:18.197Z,67.50
2019-01-29T07:47:18.188Z,67.50
2019-01-29T07:48:18.176Z,73.13
2019-01-29T07:49:18.160Z,78.75
2019-01-29T07:50:18.150Z,84.38
2019-01-29T07:51:18.137Z,84.38
2019-01-29T07:52:18.125Z,90.00
2019-01-29T07:53:18.138Z,95.63
2019-01-29T07:54:18.101Z,95.63
2019-01-29T07:55:18.082Z,106.88
2019-01-29T07:56:18.070Z,101.25
2019-01-29T07:57:18.059Z,118.13
2019-01-29T07:58:18.047Z,129.38
2019-01-29T07:59:18.039Z,129.38
2019-01-29T08:00:18.026Z,135.00
2019-01-29T08:01:18.013Z,135.00
2019-01-29T08:02:18.008Z,135.00
2019-01-29T08:03:17.984Z,118.13
2019-01-29T08:04:17.974Z,106.88
2019-01-29T08:05:17.964Z,112.50
2019-01-29T08:06:17.952Z,135.00
2019-01-29T08:07:17.934Z,140.63
2019-01-29T08:08:17.925Z,146.25
2019-01-29T08:09:17.916Z,163.13
2019-01-29T08:10:17.899Z,180.00
2019-01-29T08:11:17.892Z,202.50
2019-01-29T08:12:17.880Z,196.88
2019-01-29T08:13:17.868Z,202.50
2019-01-29T08:14:17.856Z,191.25
2019-01-29T08:15:17.837Z,185.63
2019-01-29T08:16:17.826Z,185.63
2019-01-29T08:17:17.814Z,185.63
2019-01-29T08:18:17.804Z,180.00
2019-01-29T08:19:17.797Z,168.75
2019-01-29T08:20:17.782Z,174.38
2019-01-29T08:21:17.767Z,174.38
2019-01-29T08:22:17.755Z,180.00
2019-01-29T08:23:17.751Z,180.00
2019-01-29T08:24:17.735Z,185.63
2019-01-29T08:25:17.724Z,196.88
2019-01-29T08:26:17.715Z,196.88
2019-01-29T08:27:17.696Z,208.13
2019-01-29T08:28:17.685Z,213.75
2019-01-29T08:29:17.674Z,225.00
2019-01-29T08:30:17.664Z,230.63
2019-01-29T08:31:17.653Z,236.25
2019-01-29T08:32:17.643Z,236.25
2019-01-29T08:33:17.631Z,230.63
2019-01-29T08:34:17.621Z,219.38
2019-01-29T08:35:17.604Z,208.13
2019-01-29T08:36:17.591Z,202.50
2019-01-29T08:37:17.584Z,196.88
2019-01-29T08:38:17.573Z,196.88
2019-01-29T08:39:17.557Z,202.50
2019-01-29T08:40:17.545Z,208.13
2019-01-29T08:41:17.535Z,225.00
2019-01-29T08:42:17.529Z,236.25
2019-01-29T08:43:17.516Z,247.50
2019-01-29T08:44:17.504Z,258.75
2019-01-29T08:45:17.496Z,270.00
2019-01-29T08:46:17.483Z,275.63
2019-01-29T08:47:17.467Z,258.75
2019-01-29T08:48:17.454Z,264.38
2019-01-29T08:49:17.444Z,286.88
2019-01-29T08:50:17.434Z,303.75
2019-01-29T08:51:17.425Z,326.25
2019-01-29T08:52:17.414Z,489.38
2019-01-29T08:53:17.399Z,365.63
2019-01-29T08:54:17.390Z,348.75
2019-01-29T08:55:17.381Z,354.38
2019-01-29T08:56:17.368Z,354.38
2019-01-29T08:57:17.359Z,343.13
2019-01-29T08:58:17.349Z,326.25
2019-01-29T08:59:17.331Z,320.63
2019-01-29T09:00:17.321Z,315.00
2019-01-29T09:01:17.310Z,315.00
2019-01-29T09:02:17.301Z,320.63
2019-01-29T09:03:17.293Z,337.50
2019-01-29T09:04:17.283Z,354.38
2019-01-29T09:05:17.274Z,371.25
2019-01-29T09:06:17.263Z,371.25
2019-01-29T09:07:17.245Z,388.13
2019-01-29T09:08:17.236Z,399.38
2019-01-29T09:09:17.230Z,393.75
2019-01-29T09:10:17.219Z,382.50
2019-01-29T09:11:17.203Z,343.13
2019-01-29T09:12:17.194Z,315.00
2019-01-29T09:13:17.183Z,270.00
2019-01-29T09:14:17.172Z,219.38
2019-01-29T09:15:17.166Z,202.50
2019-01-29T09:16:17.155Z,219.38
2019-01-29T09:17:17.147Z,253.13
2019-01-29T09:18:17.136Z,275.63
2019-01-29T09:19:17.120Z,292.50
2019-01-29T09:20:17.110Z,292.50
2019-01-29T09:21:17.101Z,258.75
2019-01-29T09:22:17.091Z,241.88
2019-01-29T09:23:17.128Z,247.50
2019-01-29T09:24:17.074Z,253.13
2019-01-29T09:25:21.055Z,253.13
2019-01-29T09:26:17.050Z,253.13
2019-01-29T09:27:17.041Z,264.38
2019-01-29T09:28:18.627Z,270.00
2019-01-29T09:29:17.828Z,270.00
2019-01-29T09:30:17.010Z,264.38
2019-01-29T09:31:16.994Z,258.75
2019-01-29T09:32:16.987Z,258.75
2019-01-29T09:33:16.974Z,264.38
2019-01-29T09:34:16.963Z,270.00
2019-01-29T09:35:16.960Z,264.38
2019-01-29T09:36:16.946Z,258.75
2019-01-29T09:37:16.936Z,264.38
2019-01-29T09:38:16.926Z,270.00
2019-01-29T09:39:16.910Z,258.75
2019-01-29T09:40:16.901Z,241.88
2019-01-29T09:41:16.895Z,241.88
2019-01-29T09:42:16.887Z,264.38
2019-01-29T09:43:16.869Z,281.25
2019-01-29T09:44:16.860Z,326.25
2019-01-29T09:45:16.852Z,348.75
2019-01-29T09:46:16.838Z,354.38
2019-01-29T09:47:16.831Z,354.38
2019-01-29T09:48:16.819Z,354.38
2019-01-29T09:49:16.809Z,360.00
2019-01-29T09:50:16.799Z,365.63
2019-01-29T09:51:16.785Z,382.50
2019-01-29T09:52:16.774Z,405.00
2019-01-29T09:53:16.763Z,388.13
2019-01-29T09:54:16.753Z,376.88
2019-01-29T09:55:16.751Z,376.88
2019-01-29T09:56:16.737Z,388.13
2019-01-29T09:57:16.722Z,393.75
2019-01-29T09:58:16.713Z,405.00
2019-01-29T09:59:16.706Z,410.63
2019-01-29T10:00:16.697Z,399.38
2019-01-29T10:01:16.684Z,388.13
2019-01-29T10:02:16.675Z,388.13
2019-01-29T10:03:16.659Z,376.88
2019-01-29T10:04:16.649Z,365.63
2019-01-29T10:05:16.640Z,376.88
2019-01-29T10:06:16.630Z,388.13
2019-01-29T10:07:16.625Z,410.63
2019-01-29T10:08:16.614Z,427.50
2019-01-29T10:09:16.603Z,450.00
2019-01-29T10:10:16.593Z,461.25
2019-01-29T10:11:16.578Z,556.88
2019-01-29T10:12:16.572Z,877.50
2019-01-29T10:13:16.564Z,973.13
2019-01-29T10:14:16.555Z,1659.38
2019-01-29T10:15:16.539Z,1569.38
2019-01-29T10:16:16.529Z,1766.25
2019-01-29T10:17:16.522Z,1760.63
2019-01-29T10:18:16.512Z,1468.13
2019-01-29T10:19:16.508Z,1698.75
2019-01-29T10:20:16.502Z,1755.00
2019-01-29T10:21:16.493Z,1805.63
2019-01-29T10:22:16.487Z,978.75
2019-01-29T10:23:16.474Z,1428.75
2019-01-29T10:24:16.466Z,1417.50
2019-01-29T10:25:16.461Z,1704.38
2019-01-29T10:26:16.456Z,1648.13
2019-01-29T10:27:16.454Z,1580.63
2019-01-29T10:28:16.499Z,1192.50
2019-01-29T10:29:16.440Z,736.88
2019-01-29T10:30:16.435Z,528.75
2019-01-29T10:31:16.435Z,579.38
2019-01-29T10:32:16.432Z,652.50
2019-01-29T10:33:16.428Z,703.13
2019-01-29T10:34:16.426Z,759.38
2019-01-29T10:35:16.415Z,1113.75
2019-01-29T10:36:16.411Z,1327.50
2019-01-29T10:37:16.407Z,725.63
2019-01-29T10:38:16.404Z,551.25
2019-01-29T10:39:16.404Z,877.50
2019-01-29T10:40:16.403Z,421.88
2019-01-29T10:41:16.396Z,506.25
2019-01-29T10:42:16.392Z,658.13
2019-01-29T10:43:16.383Z,1147.50
2019-01-29T10:44:16.381Z,714.38
2019-01-29T10:45:16.381Z,534.38
2019-01-29T10:46:16.377Z,556.88
2019-01-29T10:47:16.366Z,905.63
2019-01-29T10:48:16.362Z,641.25
2019-01-29T10:49:16.359Z,978.75
2019-01-29T10:50:16.355Z,517.50
2019-01-29T10:51:16.380Z,523.13
2019-01-29T10:52:16.350Z,528.75
2019-01-29T10:53:16.344Z,720.00
2019-01-29T10:54:16.340Z,461.25
2019-01-29T10:55:16.332Z,517.50
2019-01-29T10:56:16.326Z,376.88
2019-01-29T10:57:16.325Z,551.25
2019-01-29T10:58:16.316Z,624.38
2019-01-29T10:59:16.316Z,478.13
2019-01-29T11:00:16.312Z,883.13
2019-01-29T11:01:16.303Z,534.38
2019-01-29T11:02:16.311Z,461.25
2019-01-29T11:03:16.293Z,1006.88
2019-01-29T11:04:16.290Z,562.50
2019-01-29T11:05:16.285Z,703.13
2019-01-29T11:06:16.280Z,511.88
2019-01-29T11:07:16.269Z,1153.13
2019-01-29T11:08:16.264Z,607.50
2019-01-29T11:09:16.259Z,551.25
2019-01-29T11:10:16.253Z,523.13
2019-01-29T11:11:16.253Z,506.25
2019-01-29T11:12:16.248Z,455.63
2019-01-29T11:13:16.241Z,466.88
2019-01-29T11:14:16.236Z,489.38
2019-01-29T11:15:16.226Z,483.75
2019-01-29T11:16:16.221Z,483.75
2019-01-29T11:17:16.220Z,495.00
2019-01-29T11:18:16.214Z,1029.38
2019-01-29T11:19:16.206Z,1096.88
2019-01-29T11:20:16.199Z,523.13
2019-01-29T11:21:16.194Z,1293.75
2019-01-29T11:22:16.188Z,562.50
2019-01-29T11:23:16.187Z,759.38
2019-01-29T11:24:16.184Z,1198.13
2019-01-29T11:25:16.176Z,551.25
2019-01-29T11:26:16.171Z,433.13
2019-01-29T11:27:16.159Z,1276.88
2019-01-29T11:28:16.154Z,1265.63
2019-01-29T11:29:16.149Z,658.13
2019-01-29T11:30:16.146Z,1563.75
2019-01-29T11:31:16.144Z,1226.25
2019-01-29T11:32:16.136Z,1400.63
2019-01-29T11:33:16.129Z,1271.25
2019-01-29T11:34:16.123Z,1276.88
2019-01-29T11:35:16.123Z,1209.38
2019-01-29T11:36:16.117Z,1192.50
2019-01-29T11:37:16.114Z,1125.00
2019-01-29T11:38:16.113Z,1130.63
2019-01-29T11:39:16.099Z,1136.25
2019-01-29T11:40:16.094Z,1147.50
2019-01-29T11:41:16.089Z,1102.50
2019-01-29T11:42:16.089Z,1125.00
2019-01-29T11:43:16.087Z,843.75
2019-01-29T11:44:16.080Z,540.00
2019-01-29T11:45:16.075Z,461.25
2019-01-29T11:46:16.070Z,444.38
2019-01-29T11:47:16.062Z,421.88
2019-01-29T11:48:16.057Z,405.00
2019-01-29T11:49:16.057Z,393.75
2019-01-29T11:50:16.051Z,382.50
2019-01-29T11:51:16.048Z,360.00
2019-01-29T11:52:16.035Z,427.50
2019-01-29T11:53:16.037Z,444.38
2019-01-29T11:54:16.026Z,433.13
2019-01-29T11:55:16.023Z,450.00
2019-01-29T11:56:16.017Z,433.13
2019-01-29T11:57:16.010Z,438.75
2019-01-29T11:58:16.007Z,433.13
2019-01-29T11:59:15.993Z,399.38
2019-01-29T12:00:15.988Z,376.88
2019-01-29T12:01:15.981Z,399.38
2019-01-29T12:02:15.975Z,393.75
2019-01-29T12:03:15.975Z,371.25
2019-01-29T12:04:15.965Z,371.25
2019-01-29T12:05:15.954Z,376.88
2019-01-29T12:06:15.949Z,388.13
2019-01-29T12:07:15.944Z,376.88
2019-01-29T12:08:15.939Z,320.63
2019-01-29T12:09:15.933Z,371.25
2019-01-29T12:10:15.926Z,371.25
2019-01-29T12:11:15.912Z,376.88
2019-01-29T12:12:15.907Z,320.63
2019-01-29T12:13:15.898Z,348.75
2019-01-29T12:14:15.898Z,337.50
2019-01-29T12:15:15.887Z,365.63
2019-01-29T12:16:15.881Z,365.63
2019-01-29T12:17:15.874Z,371.25
2019-01-29T12:18:15.868Z,382.50
2019-01-29T12:19:15.854Z,388.13
2019-01-29T12:20:15.847Z,388.13
2019-01-29T12:21:15.844Z,393.75
2019-01-29T12:22:15.836Z,315.00
2019-01-29T12:23:15.823Z,298.13
2019-01-29T12:24:15.816Z,281.25
2019-01-29T12:25:15.807Z,286.88
2019-01-29T12:26:15.799Z,354.38
2019-01-29T12:27:15.796Z,399.38
2019-01-29T12:28:15.789Z,388.13
2019-01-29T12:29:15.781Z,360.00
2019-01-29T12:30:15.773Z,371.25
2019-01-29T12:31:15.759Z,382.50
2019-01-29T12:32:15.751Z,320.63
2019-01-29T12:33:15.744Z,360.00
2019-01-29T12:34:15.737Z,371.25
2019-01-29T12:35:15.734Z,371.25
2019-01-29T12:36:15.727Z,416.25
2019-01-29T12:37:15.712Z,405.00
2019-01-29T12:38:15.705Z,382.50
2019-01-29T12:39:15.701Z,416.25
2019-01-29T12:40:15.693Z,410.63
2019-01-29T12:41:15.776Z,393.75
2019-01-29T12:42:15.678Z,399.38
2019-01-29T12:43:15.663Z,360.00
2019-01-29T12:44:15.655Z,326.25
2019-01-29T12:45:15.651Z,343.13
2019-01-29T12:46:15.640Z,337.50
2019-01-29T12:47:15.636Z,326.25
2019-01-29T12:48:15.628Z,286.88
2019-01-29T12:49:15.621Z,281.25
2019-01-29T12:50:15.613Z,281.25
2019-01-29T12:51:15.599Z,281.25
2019-01-29T12:52:15.592Z,292.50
2019-01-29T12:53:15.589Z,298.13
2019-01-29T12:54:15.579Z,264.38
2019-01-29T12:55:15.565Z,236.25